Barry Lakes, New Jersey
Current Conditions -  °F | °C
As of 2:53 PM on Wednesday 17 Dec 2014 (Local Time) from KFWN Reporting Station
Overcast Overcast  
Wind Chill: 44°   Ceiling: 4800
Heat Index: 47°   Visibility: 10mi
Dew Point: 36°   Wind: 6mph
Humidity: 66%   Direction: 300°WNW
Pressure: 29.83"   Gusts: NA
Location:  41.189°N, 74.4273°W
Report Text: KFWN 171953Z AUTO 30005KT 10SM FEW030 FEW038 OVC048 08/02 A2983 RMK AO2 SLP105 T00830022
Loading
Personal Weather Stations






























Interactive Weather Map New forecast layout! Learn more

10-Day Weather Forecast

Advertisements
Track Severe Weather on mobile